メインページ
METAR-TAF:

METAR-TAF

空港 :

Jask, イラン

緯度: 26-38N, 経度: 057-46E, 海抜: 3m

現時点の気象観測

当レポートは27分前の06:00(UTC)に作成
南東の風 4kt
気温 27°C
湿度 84%
気圧 1014 hPa
視程: 7000m

METAR: OIZJ 040600Z 13004KT 7000 NSC 27/24 Q1014

時間: 10:57 (06:27 UTC)


TAF: 見つかりません

4,000以上の空港の気象観測と天気予報(METAR報とTAF報)

利用可能な観測所は地図上に黄色い丸と赤い丸で示す。

丸の上にカーソルを重ねると観測所名を参照できる。

次にクリックすると気象観測と天気予報を参照できる。

マップの切り替え:黒色「×」印の緑ボタンをクリックして拡大、「-」印の緑ボタンをクリックして縮小、緑色の三角印をクリックして隣りの地図に切り替え


METAR-TAF: